Time;durP1;ratioP1;P1;durP2;ratioP2;P2;SDS_P1;SDS_P2;PMS_P1;PMS_P2;Temp;Humidity;BMP_temperature;BMP_pressure;BME280_temperature;BME280_humidity;BME280_pressure;Samples;Min_cycle;Max_cycle;Signal;HPM_P1;HPM_P2
2022/07/20 00:00:47;;;;;;;;;;;20.10;43.20;;;;;;4134185;28;19921;-85
2022/07/20 00:02:47;;;;;;;;;;;20.10;43.30;;;;;;4104868;28;20004;-85
2022/07/20 00:04:51;;;;;;;;;;;20.10;43.40;;;;;;4114670;28;21058;-85
2022/07/20 00:06:52;;;;;;;;;;;20.10;43.40;;;;;;4131967;28;19918;-85
2022/07/20 00:11:20;;;;;;;;;;;20.00;43.70;;;;;;4137016;28;19913;-85
2022/07/20 00:13:22;;;;;;;;;;;20.00;43.70;;;;;;4136817;28;19913;-85
2022/07/20 00:15:22;;;;;;;;;;;20.00;43.80;;;;;;4118446;28;19914;-85
2022/07/20 00:17:23;;;;;;;;;;;20.00;43.90;;;;;;4117139;28;19936;-86
2022/07/20 00:19:23;;;;;;;;;;;20.00;43.90;;;;;;4136573;28;19913;-85
2022/07/20 00:21:24;;;;;;;;;;;20.00;44.10;;;;;;4134872;28;19920;-86
2022/07/20 00:23:25;;;;;;;;;;;20.00;44.60;;;;;;4120502;28;19918;-85
2022/07/20 00:25:25;;;;;;;;;;;20.00;44.40;;;;;;4127443;28;20040;-86
2022/07/20 00:27:28;;;;;;;;;;;20.00;44.40;;;;;;4135179;28;19917;-86
2022/07/20 00:29:31;;;;;;;;;;;20.00;44.50;;;;;;4133523;28;19953;-86
2022/07/20 00:31:32;;;;;;;;;;;19.90;44.50;;;;;;4133442;28;19968;-85
2022/07/20 00:33:34;;;;;;;;;;;19.90;44.60;;;;;;4132386;28;19914;-85
2022/07/20 00:35:35;;;;;;;;;;;19.90;44.70;;;;;;4120111;28;19917;-85
2022/07/20 00:37:35;;;;;;;;;;;19.90;44.80;;;;;;4109367;28;19972;-85
2022/07/20 00:39:36;;;;;;;;;;;19.90;44.80;;;;;;4138585;28;19917;-85
2022/07/20 00:41:38;;;;;;;;;;;19.80;44.80;;;;;;4139225;28;19940;-85
2022/07/20 00:43:53;;;;;;;;;;;19.80;44.90;;;;;;4135472;28;20424;-84
2022/07/20 00:45:54;;;;;;;;;;;19.80;45.00;;;;;;4136139;28;19910;-85
2022/07/20 00:47:55;;;;;;;;;;;19.80;45.00;;;;;;4150318;28;19944;-85
2022/07/20 00:49:55;;;;;;;;;;;19.80;45.00;;;;;;4139516;28;19921;-85
2022/07/20 00:51:56;;;;;;;;;;;19.70;45.20;;;;;;4117287;28;20000;-85
2022/07/20 00:53:57;;;;;;;;;;;19.80;45.30;;;;;;4116998;28;19948;-86
2022/07/20 00:55:58;;;;;;;;;;;19.80;45.30;;;;;;4136918;28;19945;-86
2022/07/20 00:57:59;;;;;;;;;;;19.70;45.40;;;;;;4138040;28;19926;-86
2022/07/20 00:59:59;;;;;;;;;;;19.70;45.40;;;;;;4148683;28;20361;-85
2022/07/20 01:02:00;;;;;;;;;;;19.70;45.50;;;;;;4125353;28;20703;-85
2022/07/20 01:04:01;;;;;;;;;;;19.70;45.60;;;;;;4140248;28;19917;-85
2022/07/20 01:06:01;;;;;;;;;;;19.70;45.70;;;;;;4118893;28;19913;-84
2022/07/20 01:08:02;;;;;;;;;;;19.70;45.70;;;;;;4123796;28;20048;-85
2022/07/20 01:10:02;;;;;;;;;;;19.70;45.80;;;;;;4117975;28;19918;-85
2022/07/20 01:12:03;;;;;;;;;;;19.60;45.70;;;;;;4120349;28;19976;-85
2022/07/20 01:14:05;;;;;;;;;;;19.60;45.80;;;;;;4136011;28;19922;-85
2022/07/20 01:16:05;;;;;;;;;;;19.60;45.70;;;;;;4113040;28;19965;-85
2022/07/20 01:18:06;;;;;;;;;;;19.60;45.70;;;;;;4095177;28;19973;-85
2022/07/20 01:20:10;;;;;;;;;;;19.60;45.80;;;;;;4130902;28;19914;-85
2022/07/20 01:22:10;;;;;;;;;;;19.60;45.80;;;;;;4134741;28;19917;-85
2022/07/20 01:24:11;;;;;;;;;;;19.60;45.80;;;;;;4115686;28;19936;-85
2022/07/20 01:26:15;;;;;;;;;;;19.60;45.80;;;;;;4132928;28;19918;-84
2022/07/20 01:28:15;;;;;;;;;;;19.60;45.90;;;;;;4114425;28;20405;-85
2022/07/20 01:30:16;;;;;;;;;;;19.50;46.00;;;;;;4114195;28;19918;-85
2022/07/20 01:32:16;;;;;;;;;;;19.50;46.20;;;;;;4103909;28;20333;-85
2022/07/20 01:34:19;;;;;;;;;;;19.50;46.20;;;;;;4136492;28;20004;-85
2022/07/20 01:36:19;;;;;;;;;;;19.40;46.00;;;;;;4131937;28;19921;-86
2022/07/20 01:38:20;;;;;;;;;;;19.40;46.30;;;;;;4131382;28;19964;-85
2022/07/20 01:40:20;;;;;;;;;;;19.40;46.40;;;;;;4141581;28;19986;-85
2022/07/20 01:42:21;;;;;;;;;;;19.40;47.00;;;;;;4117394;28;19913;-85
2022/07/20 01:44:22;;;;;;;;;;;19.30;46.50;;;;;;4142410;28;19928;-85
2022/07/20 01:46:23;;;;;;;;;;;19.30;46.30;;;;;;4136100;28;19913;-85
2022/07/20 01:48:23;;;;;;;;;;;19.30;46.40;;;;;;4124767;28;19977;-85
2022/07/20 01:50:24;;;;;;;;;;;19.20;46.50;;;;;;4144040;28;19914;-85
2022/07/20 01:52:24;;;;;;;;;;;19.20;46.60;;;;;;4121657;28;19922;-85
2022/07/20 01:54:25;;;;;;;;;;;19.20;46.70;;;;;;4135867;28;19948;-85
2022/07/20 01:56:25;;;;;;;;;;;19.10;46.60;;;;;;4143260;28;19980;-85
2022/07/20 01:58:26;;;;;;;;;;;19.10;46.60;;;;;;4142709;28;19936;-85
2022/07/20 02:00:27;;;;;;;;;;;19.10;46.70;;;;;;4141474;28;19964;-85
2022/07/20 02:02:27;;;;;;;;;;;19.00;46.90;;;;;;4138281;28;20284;-85
2022/07/20 02:04:28;;;;;;;;;;;19.00;47.00;;;;;;4123141;28;19914;-85
2022/07/20 02:06:29;;;;;;;;;;;19.00;47.00;;;;;;4137161;28;20377;-85
2022/07/20 02:08:29;;;;;;;;;;;18.90;46.90;;;;;;4108851;28;20104;-85
2022/07/20 02:10:30;;;;;;;;;;;18.90;47.10;;;;;;4136138;28;20862;-84
2022/07/20 02:12:31;;;;;;;;;;;18.90;46.90;;;;;;4117407;28;19913;-85
2022/07/20 02:14:31;;;;;;;;;;;18.90;47.00;;;;;;4121426;28;19914;-85
2022/07/20 02:16:32;;;;;;;;;;;18.80;47.00;;;;;;4135748;28;19917;-85
2022/07/20 02:18:33;;;;;;;;;;;18.80;47.30;;;;;;4123010;28;19921;-85
2022/07/20 02:20:34;;;;;;;;;;;18.80;47.30;;;;;;4136948;28;20000;-85
2022/07/20 02:22:34;;;;;;;;;;;18.70;47.30;;;;;;4117673;28;19985;-85
2022/07/20 02:24:35;;;;;;;;;;;18.70;48.10;;;;;;4135862;28;19929;-85
2022/07/20 02:26:35;;;;;;;;;;;18.70;47.60;;;;;;4120706;28;20402;-85
2022/07/20 02:28:36;;;;;;;;;;;18.70;47.80;;;;;;4122792;28;19917;-85
2022/07/20 02:30:37;;;;;;;;;;;18.60;47.60;;;;;;4146336;28;20035;-84
2022/07/20 02:32:37;;;;;;;;;;;18.60;47.80;;;;;;4135213;28;20664;-85
2022/07/20 02:34:38;;;;;;;;;;;18.60;47.90;;;;;;4117106;28;20933;-85
2022/07/20 02:36:39;;;;;;;;;;;18.50;48.80;;;;;;4131960;28;19920;-85
2022/07/20 02:38:39;;;;;;;;;;;18.50;48.70;;;;;;4132382;28;19913;-85
2022/07/20 02:40:40;;;;;;;;;;;18.50;48.60;;;;;;4122506;28;20448;-85
2022/07/20 02:42:40;;;;;;;;;;;18.40;49.10;;;;;;4136122;28;19917;-87
2022/07/20 02:44:41;;;;;;;;;;;18.40;49.50;;;;;;4104629;28;19914;-86
2022/07/20 02:46:42;;;;;;;;;;;18.30;49.40;;;;;;4124266;28;20001;-86
2022/07/20 02:48:42;;;;;;;;;;;18.30;49.20;;;;;;4118340;28;19938;-86
2022/07/20 02:50:43;;;;;;;;;;;18.30;49.30;;;;;;4139791;28;19913;-85
2022/07/20 02:52:43;;;;;;;;;;;18.30;49.40;;;;;;4138402;28;20333;-85
2022/07/20 02:54:44;;;;;;;;;;;18.20;49.50;;;;;;4122068;28;19920;-85
2022/07/20 02:56:44;;;;;;;;;;;18.20;49.60;;;;;;4122681;28;19917;-85
2022/07/20 02:58:45;;;;;;;;;;;18.20;49.60;;;;;;4142149;28;20456;-86
2022/07/20 03:00:46;;;;;;;;;;;18.20;49.70;;;;;;4119920;28;19953;-87
2022/07/20 03:02:47;;;;;;;;;;;18.20;49.80;;;;;;4138217;28;20377;-86
2022/07/20 03:04:48;;;;;;;;;;;18.10;49.60;;;;;;4120020;28;20024;-86
2022/07/20 03:06:48;;;;;;;;;;;18.20;49.60;;;;;;4107237;28;19918;-86
2022/07/20 03:08:49;;;;;;;;;;;18.10;49.00;;;;;;4123197;28;20511;-85
2022/07/20 03:10:50;;;;;;;;;;;18.10;48.60;;;;;;4122287;28;19985;-86
2022/07/20 03:12:50;;;;;;;;;;;18.10;49.00;;;;;;4119684;28;19914;-85
2022/07/20 03:14:51;;;;;;;;;;;18.10;49.10;;;;;;4122528;28;20389;-85
2022/07/20 03:16:52;;;;;;;;;;;18.10;49.40;;;;;;4112488;28;19976;-86
2022/07/20 03:18:53;;;;;;;;;;;18.00;49.60;;;;;;4139371;28;19914;-86
2022/07/20 03:20:53;;;;;;;;;;;18.00;49.60;;;;;;4115662;28;20033;-85
2022/07/20 03:22:54;;;;;;;;;;;18.00;49.60;;;;;;4137741;28;19918;-86
2022/07/20 03:24:55;;;;;;;;;;;18.00;49.80;;;;;;4132380;28;19922;-85
2022/07/20 03:26:56;;;;;;;;;;;18.00;50.30;;;;;;4120233;28;19969;-85
2022/07/20 03:28:56;;;;;;;;;;;18.00;50.40;;;;;;4104362;28;19922;-86
2022/07/20 03:30:57;;;;;;;;;;;18.00;50.10;;;;;;4118864;28;19933;-86
2022/07/20 03:32:58;;;;;;;;;;;18.00;50.10;;;;;;4120997;28;19970;-86
2022/07/20 03:34:58;;;;;;;;;;;18.00;50.40;;;;;;4116321;28;23070;-85
2022/07/20 03:36:59;;;;;;;;;;;18.00;50.90;;;;;;4133449;28;20397;-86
2022/07/20 03:39:00;;;;;;;;;;;18.00;51.10;;;;;;4120442;28;19928;-86
2022/07/20 03:41:00;;;;;;;;;;;18.00;50.50;;;;;;4133293;28;19951;-85
2022/07/20 03:43:01;;;;;;;;;;;18.00;50.50;;;;;;4141993;28;19920;-85
2022/07/20 03:45:02;;;;;;;;;;;18.00;50.60;;;;;;4123521;28;20327;-86
2022/07/20 03:47:02;;;;;;;;;;;18.00;50.70;;;;;;4131709;28;20254;-85
2022/07/20 03:49:03;;;;;;;;;;;17.90;51.10;;;;;;4134822;28;19917;-85
2022/07/20 03:51:04;;;;;;;;;;;17.90;51.10;;;;;;4117610;28;19914;-85
2022/07/20 03:53:05;;;;;;;;;;;18.00;51.30;;;;;;4119602;28;19914;-86
2022/07/20 03:55:05;;;;;;;;;;;17.90;51.50;;;;;;4120979;28;20410;-85
2022/07/20 03:57:06;;;;;;;;;;;18.00;52.60;;;;;;4110015;28;19944;-85
2022/07/20 03:59:07;;;;;;;;;;;18.00;51.60;;;;;;4120122;28;19960;-86
2022/07/20 04:01:08;;;;;;;;;;;18.00;51.30;;;;;;4118864;28;20289;-85
2022/07/20 04:03:09;;;;;;;;;;;18.00;51.60;;;;;;4129159;28;19921;-85
2022/07/20 04:05:09;;;;;;;;;;;18.00;52.60;;;;;;4119196;28;19999;-84
2022/07/20 04:07:10;;;;;;;;;;;18.00;53.00;;;;;;4114608;28;19921;-85
2022/07/20 04:09:10;;;;;;;;;;;18.00;53.10;;;;;;4132675;28;19921;-85
2022/07/20 04:11:11;;;;;;;;;;;18.00;52.70;;;;;;4139090;28;19964;-84
2022/07/20 04:13:15;;;;;;;;;;;18.10;53.90;;;;;;4135792;28;20017;-85
2022/07/20 04:15:15;;;;;;;;;;;18.10;54.10;;;;;;4142092;28;19922;-85
2022/07/20 04:17:16;;;;;;;;;;;18.10;55.50;;;;;;4128439;28;20020;-85
2022/07/20 04:19:16;;;;;;;;;;;18.10;56.80;;;;;;4131346;28;19914;-85
2022/07/20 04:21:17;;;;;;;;;;;18.10;55.20;;;;;;4116643;28;19922;-85
2022/07/20 04:23:17;;;;;;;;;;;18.20;54.60;;;;;;4134028;28;20865;-86
2022/07/20 04:25:19;;;;;;;;;;;18.20;56.50;;;;;;4106463;28;20374;-86
2022/07/20 04:27:19;;;;;;;;;;;18.20;56.20;;;;;;4129541;28;20032;-86
2022/07/20 04:29:21;;;;;;;;;;;18.30;56.10;;;;;;4100724;28;19929;-85
2022/07/20 04:31:22;;;;;;;;;;;18.30;56.10;;;;;;4134179;28;19932;-86
2022/07/20 04:33:42;;;;;;;;;;;18.30;55.40;;;;;;4117914;28;19914;-85
2022/07/20 04:35:57;;;;;;;;;;;18.40;55.50;;;;;;4133145;28;20329;-85
2022/07/20 04:38:18;;;;;;;;;;;18.40;55.20;;;;;;4131990;28;19922;-85
2022/07/20 04:40:39;;;;;;;;;;;18.50;57.20;;;;;;4118930;28;19917;-85
2022/07/20 04:42:40;;;;;;;;;;;18.60;55.70;;;;;;4123209;28;19918;-86
2022/07/20 04:45:00;;;;;;;;;;;18.60;55.40;;;;;;4123702;28;19936;-85
2022/07/20 04:47:21;;;;;;;;;;;18.70;56.00;;;;;;4114761;28;19926;-86
2022/07/20 04:49:41;;;;;;;;;;;18.70;55.10;;;;;;4139544;28;19921;-86
2022/07/20 04:52:02;;;;;;;;;;;18.80;54.70;;;;;;4137558;28;19917;-85
2022/07/20 04:54:22;;;;;;;;;;;18.90;54.60;;;;;;4121678;28;20277;-86
2022/07/20 04:56:43;;;;;;;;;;;18.90;55.10;;;;;;4137250;28;20022;-85
2022/07/20 04:59:04;;;;;;;;;;;19.00;54.80;;;;;;4135700;28;19932;-86
2022/07/20 05:01:24;;;;;;;;;;;19.00;55.60;;;;;;4132984;28;19925;-86
2022/07/20 05:03:45;;;;;;;;;;;19.10;55.00;;;;;;4126526;28;19913;-85
2022/07/20 05:06:06;;;;;;;;;;;19.20;55.70;;;;;;4138098;28;19917;-86
2022/07/20 05:08:26;;;;;;;;;;;19.20;55.80;;;;;;4136668;28;20020;-86
2022/07/20 05:10:47;;;;;;;;;;;19.30;55.70;;;;;;4120059;28;19945;-86
2022/07/20 05:13:07;;;;;;;;;;;19.40;55.40;;;;;;4125063;28;20946;-85
2022/07/20 05:15:27;;;;;;;;;;;19.40;55.40;;;;;;4144620;28;19993;-84
2022/07/20 05:17:48;;;;;;;;;;;19.50;55.70;;;;;;4154946;28;19905;-85
2022/07/20 05:20:09;;;;;;;;;;;19.50;55.60;;;;;;4136500;28;19922;-85
2022/07/20 05:22:30;;;;;;;;;;;19.60;55.80;;;;;;4126206;28;19915;-85
2022/07/20 05:24:50;;;;;;;;;;;19.70;55.70;;;;;;4141300;28;19921;-85
2022/07/20 05:27:11;;;;;;;;;;;19.80;55.90;;;;;;4140952;28;19913;-85
2022/07/20 05:29:31;;;;;;;;;;;19.90;56.10;;;;;;4126854;28;19926;-85
2022/07/20 05:31:52;;;;;;;;;;;19.90;56.00;;;;;;4137035;28;20369;-86
2022/07/20 05:34:12;;;;;;;;;;;20.00;56.80;;;;;;4120794;28;20690;-85
2022/07/20 05:36:33;;;;;;;;;;;20.10;56.50;;;;;;4133019;28;19933;-85
2022/07/20 05:38:53;;;;;;;;;;;20.10;56.80;;;;;;4140208;28;19972;-86
2022/07/20 05:41:14;;;;;;;;;;;20.20;56.50;;;;;;4135286;28;19964;-86
2022/07/20 05:43:34;;;;;;;;;;;20.30;57.00;;;;;;4134673;28;20262;-85
2022/07/20 05:45:55;;;;;;;;;;;20.40;57.10;;;;;;4123840;28;19925;-85
2022/07/20 05:48:15;;;;;;;;;;;20.50;56.90;;;;;;4139853;28;19929;-85
2022/07/20 05:50:36;;;;;;;;;;;20.60;56.70;;;;;;4128401;28;20052;-86
2022/07/20 05:52:56;;;;;;;;;;;20.70;57.00;;;;;;4138217;28;20008;-86
2022/07/20 05:55:18;;;;;;;;;;;20.70;56.70;;;;;;4138153;28;19988;-85
2022/07/20 05:57:38;;;;;;;;;;;20.80;57.20;;;;;;4120424;28;19918;-85
2022/07/20 05:59:59;;;;;;;;;;;20.90;58.60;;;;;;4140316;28;19929;-85
2022/07/20 06:02:20;;;;;;;;;;;21.00;57.70;;;;;;4122136;28;20055;-85
2022/07/20 06:04:20;;;;;;;;;;;21.10;57.20;;;;;;4122575;28;19952;-84
2022/07/20 06:06:22;;;;;;;;;;;21.20;57.40;;;;;;4140391;28;19913;-86
2022/07/20 06:08:23;;;;;;;;;;;21.30;57.30;;;;;;4136590;28;19921;-85
2022/07/20 06:10:23;;;;;;;;;;;21.30;57.20;;;;;;4138457;28;19963;-86
2022/07/20 06:12:24;;;;;;;;;;;21.50;57.30;;;;;;4101088;28;20894;-86
2022/07/20 06:14:25;;;;;;;;;;;21.60;57.00;;;;;;4120691;28;19914;-85
2022/07/20 06:16:26;;;;;;;;;;;21.60;57.00;;;;;;4107501;28;20469;-86
2022/07/20 06:18:27;;;;;;;;;;;21.70;56.90;;;;;;4136004;28;19918;-87
2022/07/20 06:20:27;;;;;;;;;;;21.80;56.80;;;;;;4100837;28;19919;-84
2022/07/20 06:22:28;;;;;;;;;;;21.90;57.00;;;;;;4118886;28;20008;-85
2022/07/20 06:24:28;;;;;;;;;;;22.00;56.80;;;;;;4117740;28;19949;-85
2022/07/20 06:26:29;;;;;;;;;;;22.10;56.90;;;;;;4138166;28;19913;-85
2022/07/20 06:28:29;;;;;;;;;;;22.20;57.20;;;;;;4134381;28;19924;-86
2022/07/20 06:30:30;;;;;;;;;;;22.30;57.00;;;;;;4133207;28;20385;-86
2022/07/20 06:32:32;;;;;;;;;;;22.30;56.60;;;;;;4132320;28;19921;-86
2022/07/20 06:34:33;;;;;;;;;;;22.50;56.60;;;;;;4101983;28;20385;-85
2022/07/20 06:36:34;;;;;;;;;;;22.50;56.40;;;;;;4135570;28;20029;-86
2022/07/20 06:38:35;;;;;;;;;;;22.60;56.40;;;;;;4105062;28;20354;-86
2022/07/20 06:40:36;;;;;;;;;;;22.70;56.30;;;;;;4121386;28;20063;-86
2022/07/20 06:42:36;;;;;;;;;;;22.80;56.20;;;;;;4121522;28;19926;-85
2022/07/20 06:44:37;;;;;;;;;;;22.90;56.00;;;;;;4098384;28;19919;-86
2022/07/20 06:46:56;;;;;;;;;;;23.00;55.80;;;;;;4134430;28;20097;-86
2022/07/20 06:49:00;;;;;;;;;;;23.10;55.60;;;;;;4119247;28;19922;-86
2022/07/20 06:51:01;;;;;;;;;;;23.20;55.30;;;;;;4106954;28;20405;-87
2022/07/20 06:53:02;;;;;;;;;;;23.30;55.50;;;;;;4122303;28;19913;-87
2022/07/20 06:55:03;;;;;;;;;;;23.40;55.40;;;;;;4115886;28;19964;-87
2022/07/20 06:57:04;;;;;;;;;;;23.50;55.10;;;;;;4133928;28;19914;-87
2022/07/20 06:59:04;;;;;;;;;;;23.60;55.20;;;;;;4133949;28;19917;-87
2022/07/20 07:01:05;;;;;;;;;;;23.70;55.10;;;;;;4115495;28;19929;-85
2022/07/20 07:03:06;;;;;;;;;;;23.80;54.80;;;;;;4100528;28;19926;-86
2022/07/20 07:05:07;;;;;;;;;;;23.90;54.60;;;;;;4118461;28;19937;-86
2022/07/20 07:07:07;;;;;;;;;;;24.00;54.00;;;;;;4134960;28;19933;-86
2022/07/20 07:09:09;;;;;;;;;;;24.10;52.80;;;;;;4117346;28;19926;-85
2022/07/20 07:11:09;;;;;;;;;;;24.20;53.20;;;;;;4102579;28;19925;-86
2022/07/20 07:13:10;;;;;;;;;;;24.30;52.30;;;;;;4136316;28;20012;-87
2022/07/20 07:15:10;;;;;;;;;;;24.40;53.10;;;;;;4138720;28;19917;-87
2022/07/20 07:17:11;;;;;;;;;;;24.50;52.70;;;;;;4127507;28;19960;-87
2022/07/20 07:19:12;;;;;;;;;;;24.60;52.40;;;;;;4122703;28;20595;-87
2022/07/20 07:21:13;;;;;;;;;;;24.70;51.90;;;;;;4136964;28;19935;-85
2022/07/20 07:23:13;;;;;;;;;;;24.80;52.40;;;;;;4126495;28;19918;-86
2022/07/20 07:25:14;;;;;;;;;;;24.90;51.60;;;;;;4139425;28;19917;-87
2022/07/20 07:27:14;;;;;;;;;;;25.00;51.60;;;;;;4121314;28;19922;-87
2022/07/20 07:29:15;;;;;;;;;;;25.10;50.80;;;;;;4119387;28;20008;-84
2022/07/20 07:31:17;;;;;;;;;;;25.20;49.00;;;;;;4136598;28;19933;-86
2022/07/20 07:33:25;;;;;;;;;;;25.40;50.70;;;;;;4119746;28;19970;-85
2022/07/20 07:35:25;;;;;;;;;;;25.40;49.80;;;;;;4121224;28;19973;-86
2022/07/20 07:37:26;;;;;;;;;;;25.60;50.70;;;;;;4120166;28;19930;-87
2022/07/20 07:39:26;;;;;;;;;;;25.70;48.80;;;;;;4115405;28;19949;-86
2022/07/20 07:41:27;;;;;;;;;;;25.80;50.00;;;;;;4124904;28;20459;-86
2022/07/20 07:43:28;;;;;;;;;;;25.90;49.00;;;;;;4138562;28;19921;-85
2022/07/20 07:45:28;;;;;;;;;;;26.00;49.00;;;;;;4139134;28;20368;-85
2022/07/20 07:47:30;;;;;;;;;;;26.10;49.20;;;;;;4134622;28;19921;-85
2022/07/20 07:49:30;;;;;;;;;;;26.20;49.20;;;;;;4132787;28;19925;-86
2022/07/20 07:51:31;;;;;;;;;;;26.30;49.60;;;;;;4140340;28;19984;-85
2022/07/20 07:53:32;;;;;;;;;;;26.40;48.30;;;;;;4101620;28;20519;-85
2022/07/20 07:55:37;;;;;;;;;;;26.50;49.40;;;;;;4133397;28;20262;-86
2022/07/20 07:57:37;;;;;;;;;;;26.60;49.30;;;;;;4119581;28;20000;-86
2022/07/20 07:59:38;;;;;;;;;;;26.70;48.60;;;;;;4135608;28;20420;-86
2022/07/20 08:01:38;;;;;;;;;;;26.70;48.10;;;;;;4116798;28;19918;-87
2022/07/20 08:03:39;;;;;;;;;;;26.80;46.60;;;;;;4131294;28;19917;-86
2022/07/20 08:05:40;;;;;;;;;;;26.90;47.30;;;;;;4116401;28;19997;-86
2022/07/20 08:07:40;;;;;;;;;;;27.00;48.40;;;;;;4119584;28;19917;-85
2022/07/20 08:09:41;;;;;;;;;;;27.00;48.30;;;;;;4116948;28;20511;-86
2022/07/20 08:11:41;;;;;;;;;;;27.10;48.80;;;;;;4119902;28;19913;-85
2022/07/20 08:13:42;;;;;;;;;;;27.20;47.70;;;;;;4119317;28;19921;-86
2022/07/20 08:15:42;;;;;;;;;;;27.30;48.40;;;;;;4119738;28;20004;-85
2022/07/20 08:17:44;;;;;;;;;;;27.30;48.50;;;;;;4131768;28;19971;-86
2022/07/20 08:19:45;;;;;;;;;;;27.40;47.30;;;;;;4113749;28;19918;-86
2022/07/20 08:21:45;;;;;;;;;;;27.50;48.30;;;;;;4138125;28;19921;-86
2022/07/20 08:23:46;;;;;;;;;;;27.50;47.80;;;;;;4117926;28;20312;-85
2022/07/20 08:25:47;;;;;;;;;;;27.60;47.30;;;;;;4117278;28;19918;-86
2022/07/20 08:27:49;;;;;;;;;;;27.70;46.90;;;;;;4131372;28;20440;-85
2022/07/20 08:29:49;;;;;;;;;;;27.80;46.60;;;;;;4131035;28;20356;-86
2022/07/20 08:31:50;;;;;;;;;;;27.90;48.10;;;;;;4139099;28;19917;-86
2022/07/20 08:33:50;;;;;;;;;;;28.00;48.10;;;;;;4136052;28;20716;-86
2022/07/20 08:35:51;;;;;;;;;;;28.10;48.20;;;;;;4135029;28;19929;-87
2022/07/20 08:37:51;;;;;;;;;;;28.20;47.80;;;;;;4136564;28;19921;-87
2022/07/20 08:39:52;;;;;;;;;;;28.30;47.60;;;;;;4143363;28;20341;-86
2022/07/20 08:41:53;;;;;;;;;;;28.40;46.40;;;;;;4136159;28;20431;-85
2022/07/20 08:43:55;;;;;;;;;;;28.50;46.40;;;;;;4139374;28;19953;-86
2022/07/20 08:45:56;;;;;;;;;;;28.60;45.80;;;;;;4121020;28;20005;-85
2022/07/20 08:47:58;;;;;;;;;;;28.70;47.00;;;;;;4099495;28;20382;-85
2022/07/20 08:49:59;;;;;;;;;;;28.80;45.00;;;;;;4123279;28;19918;-85
2022/07/20 08:52:00;;;;;;;;;;;28.90;45.00;;;;;;4134265;28;19922;-86
2022/07/20 08:54:01;;;;;;;;;;;29.00;44.70;;;;;;4112696;28;19972;-86
2022/07/20 08:56:02;;;;;;;;;;;29.10;45.40;;;;;;4118389;28;19941;-87
2022/07/20 08:58:02;;;;;;;;;;;29.20;41.60;;;;;;4092650;28;20481;-85
2022/07/20 09:00:04;;;;;;;;;;;29.30;42.50;;;;;;4110200;28;19924;-86
2022/07/20 09:02:06;;;;;;;;;;;29.40;44.40;;;;;;4113905;28;21089;-87
2022/07/20 09:04:10;;;;;;;;;;;29.50;44.30;;;;;;4130737;28;20475;-86
2022/07/20 09:06:11;;;;;;;;;;;29.60;43.60;;;;;;4129310;28;19914;-86
2022/07/20 09:08:13;;;;;;;;;;;29.70;44.20;;;;;;4112343;28;19922;-86
2022/07/20 09:10:21;;;;;;;;;;;29.80;44.40;;;;;;4128176;28;20023;-87
2022/07/20 09:12:21;;;;;;;;;;;29.90;42.90;;;;;;4126875;28;20365;-87
2022/07/20 09:14:43;;;;;;;;;;;30.00;41.00;;;;;;4128906;28;19925;-85
2022/07/20 09:16:46;;;;;;;;;;;30.00;42.60;;;;;;4114392;28;19914;-86
2022/07/20 09:18:47;;;;;;;;;;;30.10;42.80;;;;;;4113240;28;19924;-86
2022/07/20 09:20:53;;;;;;;;;;;30.20;42.10;;;;;;4114142;28;21691;-87
2022/07/20 09:22:59;;;;;;;;;;;30.30;42.90;;;;;;4126043;28;19918;-86
2022/07/20 09:25:05;;;;;;;;;;;30.40;40.40;;;;;;4129167;28;19936;-85
2022/07/20 09:27:06;;;;;;;;;;;30.50;42.80;;;;;;4127289;28;20598;-86
2022/07/20 09:29:07;;;;;;;;;;;30.60;43.10;;;;;;4114324;28;19922;-87
2022/07/20 09:31:09;;;;;;;;;;;30.70;39.40;;;;;;4129782;28;20628;-85
2022/07/20 09:33:09;;;;;;;;;;;30.70;37.40;;;;;;4092273;28;19918;-87
2022/07/20 09:35:10;;;;;;;;;;;30.90;40.50;;;;;;4132187;28;20066;-87
2022/07/20 09:37:17;;;;;;;;;;;30.90;39.60;;;;;;4097331;28;20390;-86
2022/07/20 09:39:19;;;;;;;;;;;31.00;37.80;;;;;;4130748;28;19922;-87
2022/07/20 09:41:23;;;;;;;;;;;31.00;39.30;;;;;;4120190;28;19924;-86
2022/07/20 09:43:26;;;;;;;;;;;31.10;40.30;;;;;;4125475;28;19949;-86
2022/07/20 09:45:27;;;;;;;;;;;31.20;41.00;;;;;;4116030;28;19918;-86
2022/07/20 09:47:28;;;;;;;;;;;31.20;41.40;;;;;;4113634;28;19922;-87
2022/07/20 09:49:32;;;;;;;;;;;31.20;41.60;;;;;;4127755;28;21984;-86
2022/07/20 09:51:34;;;;;;;;;;;31.20;41.00;;;;;;4117654;28;19926;-85
2022/07/20 09:53:35;;;;;;;;;;;31.10;41.10;;;;;;4112911;28;19964;-86
2022/07/20 09:55:37;;;;;;;;;;;31.10;41.40;;;;;;4129550;28;20316;-86
2022/07/20 09:57:37;;;;;;;;;;;31.10;41.60;;;;;;4140595;28;20434;-86
2022/07/20 09:59:38;;;;;;;;;;;31.00;41.30;;;;;;4122691;28;19917;-86
2022/07/20 10:01:41;;;;;;;;;;;31.00;39.90;;;;;;4143256;28;19913;-85
2022/07/20 10:03:42;;;;;;;;;;;31.00;41.50;;;;;;4155159;28;19925;-85
2022/07/20 10:05:43;;;;;;;;;;;30.90;41.50;;;;;;4141838;28;19980;-86
2022/07/20 10:07:44;;;;;;;;;;;30.90;42.30;;;;;;4144099;28;19926;-85
2022/07/20 10:09:45;;;;;;;;;;;30.90;42.10;;;;;;4150560;28;19988;-87
2022/07/20 10:11:47;;;;;;;;;;;30.80;42.10;;;;;;4126204;28;19922;-86
2022/07/20 10:13:48;;;;;;;;;;;30.80;42.70;;;;;;4123117;28;19945;-87
2022/07/20 10:15:55;;;;;;;;;;;30.70;42.20;;;;;;4123682;28;19914;-84
2022/07/20 10:17:57;;;;;;;;;;;30.70;43.10;;;;;;4125218;28;19918;-85
2022/07/20 10:19:57;;;;;;;;;;;30.70;42.50;;;;;;4138679;28;19956;-85
2022/07/20 10:21:58;;;;;;;;;;;30.60;43.40;;;;;;4105947;28;19914;-86
2022/07/20 10:24:19;;;;;;;;;;;30.60;43.80;;;;;;4122771;28;19948;-85
2022/07/20 10:26:25;;;;;;;;;;;30.60;43.20;;;;;;4128177;28;20809;-85
2022/07/20 10:28:26;;;;;;;;;;;30.60;43.20;;;;;;4120799;28;19976;-88
2022/07/20 10:30:27;;;;;;;;;;;30.60;43.50;;;;;;4122144;28;20398;-87
2022/07/20 10:32:28;;;;;;;;;;;30.60;43.20;;;;;;4133960;28;20385;-85
2022/07/20 10:34:33;;;;;;;;;;;30.70;43.80;;;;;;4137019;28;19921;-85
2022/07/20 10:36:43;;;;;;;;;;;30.60;44.60;;;;;;4104361;28;20017;-87
2022/07/20 10:38:45;;;;;;;;;;;30.70;44.60;;;;;;4132605;28;19928;-87
2022/07/20 10:43:24;;;;;;;;;;;30.70;44.20;;;;;;4133285;28;20004;-86
2022/07/20 10:45:27;;;;;;;;;;;30.70;44.20;;;;;;4104653;28;20082;-86
2022/07/20 10:47:46;;;;;;;;;;;30.70;44.70;;;;;;4116276;28;19922;-86
2022/07/20 10:50:04;;;;;;;;;;;30.80;44.50;;;;;;4128197;28;19925;-86
2022/07/20 10:52:28;;;;;;;;;;;30.80;44.80;;;;;;4128849;28;19925;-85
2022/07/20 10:54:31;;;;;;;;;;;30.90;45.10;;;;;;4110317;28;20382;-86
2022/07/20 10:56:31;;;;;;;;;;;30.90;44.60;;;;;;4134536;28;19913;-87
2022/07/20 10:58:33;;;;;;;;;;;30.90;44.30;;;;;;4096416;28;19945;-86
2022/07/20 11:00:39;;;;;;;;;;;30.90;44.70;;;;;;4128437;28;20476;-87
2022/07/20 11:02:42;;;;;;;;;;;30.90;44.50;;;;;;4133075;28;19914;-87
2022/07/20 11:04:43;;;;;;;;;;;31.00;45.20;;;;;;4129963;28;19924;-85
2022/07/20 11:06:44;;;;;;;;;;;31.00;44.90;;;;;;4133723;28;20385;-87
2022/07/20 11:08:49;;;;;;;;;;;30.90;44.70;;;;;;4122117;28;19961;-85
2022/07/20 11:10:50;;;;;;;;;;;30.90;43.90;;;;;;4133076;28;19921;-86
2022/07/20 11:12:55;;;;;;;;;;;31.00;43.70;;;;;;4134791;28;20545;-87
2022/07/20 11:14:56;;;;;;;;;;;31.00;44.40;;;;;;4112089;28;19922;-85
2022/07/20 11:16:57;;;;;;;;;;;31.10;44.40;;;;;;4123464;28;19921;-85
2022/07/20 11:18:58;;;;;;;;;;;31.10;43.70;;;;;;4131772;28;19914;-86
2022/07/20 11:21:03;;;;;;;;;;;31.10;44.20;;;;;;4130648;28;19918;-86
2022/07/20 11:23:03;;;;;;;;;;;31.20;44.30;;;;;;4130788;28;19984;-86
2022/07/20 11:25:04;;;;;;;;;;;31.20;44.10;;;;;;4096394;28;19922;-87
2022/07/20 11:27:15;;;;;;;;;;;31.30;44.20;;;;;;4118943;28;19956;-86
2022/07/20 11:29:16;;;;;;;;;;;31.40;44.10;;;;;;4124827;28;19921;-85
2022/07/20 11:31:20;;;;;;;;;;;31.40;43.80;;;;;;4114746;28;20389;-86
2022/07/20 11:33:24;;;;;;;;;;;31.40;42.00;;;;;;4131359;28;21102;-86
2022/07/20 11:35:24;;;;;;;;;;;31.40;42.70;;;;;;4109595;28;20989;-87
2022/07/20 11:37:25;;;;;;;;;;;31.60;43.50;;;;;;4131591;28;19996;-87
2022/07/20 11:39:26;;;;;;;;;;;31.60;43.40;;;;;;4115183;28;20298;-87
2022/07/20 11:41:29;;;;;;;;;;;31.70;42.10;;;;;;4096866;28;20445;-86
2022/07/20 11:43:30;;;;;;;;;;;31.80;41.70;;;;;;4136340;28;19950;-86
2022/07/20 11:45:31;;;;;;;;;;;31.90;41.70;;;;;;4135932;28;19913;-86
2022/07/20 11:47:33;;;;;;;;;;;32.00;42.10;;;;;;4132884;28;19987;-87
2022/07/20 11:49:33;;;;;;;;;;;32.00;42.10;;;;;;4118184;28;19953;-86
2022/07/20 11:51:35;;;;;;;;;;;32.10;42.50;;;;;;4115295;28;19918;-86
2022/07/20 11:53:37;;;;;;;;;;;32.20;42.80;;;;;;4130242;28;19932;-87
2022/07/20 11:55:38;;;;;;;;;;;32.30;41.80;;;;;;4114671;28;19929;-86
2022/07/20 11:57:40;;;;;;;;;;;32.30;38.30;;;;;;4134143;28;19951;-86
2022/07/20 11:59:44;;;;;;;;;;;32.40;41.00;;;;;;4127892;28;19913;-86
2022/07/20 12:01:47;;;;;;;;;;;32.60;41.10;;;;;;4131763;28;21591;-87
2022/07/20 12:03:50;;;;;;;;;;;32.70;40.80;;;;;;4128273;28;19921;-86